Overview Statistics Trail Chart Weather Telemetry Raw packets
 

This is the latest recevied weather packets stored in our database for station/object W8KVG. If no packets are shown the sender has not sent any weather packets the latest 10 day(s).

<< 49 50 51 52 53 54 55 >>
Time Temp. Humidity Pressure Rain* Wind** Luminosity Snow
1777577914 8.89° C 74% 1012.6 hPa 0 mm - 45 W/m² -
1777577610 8.89° C 73% 1012.7 hPa 0 mm - 74 W/m² -
1777577307 8.89° C 75% 1012.6 hPa 0 mm - 159 W/m² -
1777577003 8.89° C 72% 1012.7 hPa 0 mm - 76 W/m² -
1777576700 8.89° C 74% 1012.7 hPa 0 mm - 48 W/m² -
1777576398 8.89° C 73% 1012.7 hPa 0 mm - 42 W/m² -
1777576095 8.89° C 74% 1012.6 hPa 0 mm - 78 W/m² -
1777575791 9.44° C 73% 1012.6 hPa 0 mm - 115 W/m² -
1777575488 9.44° C 71% 1012.8 hPa 0 mm - 145 W/m² -
1777575183 9.44° C 72% 1012.8 hPa 0 mm - 176 W/m² -
1777574880 8.89° C 75% 1012.7 hPa 0 mm - 172 W/m² -
1777574577 8.89° C 75% 1012.8 hPa 0 mm - 172 W/m² -
1777574273 8.89° C 77% 1012.7 hPa 0 mm - 87 W/m² -
1777573969 8.89° C 76% 1012.8 hPa 0 mm - 104 W/m² -
1777573663 8.89° C 75% 1012.8 hPa 0 mm - 130 W/m² -
1777573360 8.33° C 76% 1012.7 hPa 0 mm - 122 W/m² -
1777573055 8.89° C 75% 1012.8 hPa 0 mm - 56 W/m² -
1777572753 8.89° C 76% 1012.7 hPa 0 mm - 76 W/m² -
1777572447 9.44° C 76% 1012.6 hPa 0 mm - 130 W/m² -
1777572144 8.89° C 76% 1012.6 hPa 0 mm - 178 W/m² -
1777571839 8.89° C 76% 1012.6 hPa 0 mm - 152 W/m² -
1777571535 8.89° C 75% 1012.6 hPa 0 mm - 130 W/m² -
1777571232 8.89° C 77% 1012.4 hPa 0 mm - 155 W/m² -
1777570928 8.89° C 79% 1012.5 hPa 0 mm - 204 W/m² -
1777570624 8.89° C 77% 1012.6 hPa 0 mm - 194 W/m² -

* Rain latest hour (hover to see other rain measurements)
** Current wind speed in m/s (hover to see current wind gust speed)